createdAt,value
2022-08-12T00:00:17.468Z,95513.06
2022-08-12T00:02:44.188Z,95499.78
2022-08-12T00:05:13.955Z,95500.88
2022-08-12T00:07:41.388Z,95497.69
2022-08-12T00:10:08.092Z,95489.28
2022-08-12T00:12:34.589Z,95490.13
2022-08-12T00:15:00.967Z,95493.06
2022-08-12T00:17:27.985Z,95496.84
2022-08-12T00:19:54.523Z,95495.72
2022-08-12T00:22:21.378Z,95494.09
2022-08-12T00:24:47.796Z,95500.03
2022-08-12T00:27:15.228Z,95493.53
2022-08-12T00:29:47.327Z,95491.34
2022-08-12T00:32:34.152Z,95501.00
2022-08-12T00:35:08.548Z,95499.13
2022-08-12T00:37:35.404Z,95491.03
2022-08-12T00:40:04.883Z,95493.47
2022-08-12T00:42:41.797Z,95488.34
2022-08-12T00:45:09.681Z,95501.00
2022-08-12T00:47:38.676Z,95494.06
2022-08-12T00:50:06.672Z,95495.72
2022-08-12T00:52:34.315Z,95489.50
2022-08-12T00:55:04.541Z,95497.34
2022-08-12T00:57:35.974Z,95497.88
2022-08-12T01:00:06.600Z,95506.81
2022-08-12T01:02:36.274Z,95512.22
2022-08-12T01:05:10.635Z,95512.47
2022-08-12T01:07:40.025Z,95516.84
2022-08-12T01:10:07.009Z,95524.38
2022-08-12T01:12:35.202Z,95513.59
2022-08-12T01:15:02.296Z,95520.63
2022-08-12T01:17:29.898Z,95522.22
2022-08-12T01:20:02.828Z,95520.63
2022-08-12T01:22:50.858Z,95515.50
2022-08-12T01:25:20.454Z,95519.81
2022-08-12T01:27:51.193Z,95515.25
2022-08-12T01:30:18.693Z,95528.19
2022-08-12T01:32:48.622Z,95521.75
2022-08-12T01:35:17.070Z,95522.78
2022-08-12T01:37:57.190Z,95525.75
2022-08-12T01:40:37.907Z,95531.38
2022-08-12T01:43:09.494Z,95523.28
2022-08-12T01:45:47.256Z,95520.00
2022-08-12T01:48:53.591Z,95516.25
2022-08-12T01:52:15.582Z,95512.47
2022-08-12T01:54:23.380Z,95518.97
2022-08-12T01:57:58.329Z,95520.03
2022-08-12T02:00:16.636Z,95518.16
2022-08-12T02:03:05.573Z,95520.84
2022-08-12T02:06:07.929Z,95527.59
2022-08-12T02:08:59.931Z,95529.75
2022-08-12T02:11:31.355Z,95526.78
2022-08-12T02:14:39.490Z,95526.50
2022-08-12T02:17:55.382Z,95522.59
2022-08-12T02:20:51.377Z,95526.88
2022-08-12T02:23:22.494Z,95524.19
2022-08-12T02:25:52.545Z,95524.44
2022-08-12T02:28:19.612Z,95521.34
2022-08-12T02:30:46.118Z,95516.94
2022-08-12T02:33:13.039Z,95526.22
2022-08-12T02:35:39.754Z,95521.94
2022-08-12T02:38:10.068Z,95523.06
2022-08-12T02:40:39.373Z,95521.47
2022-08-12T02:43:11.446Z,95517.66
2022-08-12T02:46:00.296Z,95518.38
2022-08-12T02:48:37.896Z,95505.75
2022-08-12T02:51:07.161Z,95511.19
2022-08-12T02:53:37.043Z,95496.91
2022-08-12T02:56:05.621Z,95494.41
2022-08-12T02:58:34.086Z,95499.22
2022-08-12T03:01:04.198Z,95500.84
2022-08-12T03:03:32.914Z,95486.56
2022-08-12T03:06:15.631Z,95484.69
2022-08-12T03:08:43.331Z,95477.84
2022-08-12T03:11:37.727Z,95482.38
2022-08-12T03:14:13.933Z,95479.00
2022-08-12T03:16:41.243Z,95483.94
2022-08-12T03:19:08.306Z,95484.38
2022-08-12T03:21:55.678Z,95479.25
2022-08-12T03:24:26.373Z,95484.19
2022-08-12T03:26:54.749Z,95487.19
2022-08-12T03:29:31.152Z,95481.94
2022-08-12T03:32:03.610Z,95485.44
2022-08-12T03:34:34.166Z,95482.63
2022-08-12T03:37:02.466Z,95487.19
2022-08-12T03:39:36.305Z,95484.50
2022-08-12T03:42:24.696Z,95481.63
2022-08-12T03:45:23.001Z,95484.75
2022-08-12T03:48:19.244Z,95493.22
2022-08-12T03:50:47.210Z,95491.16
2022-08-12T03:53:24.526Z,95491.72
2022-08-12T03:55:51.511Z,95493.41
2022-08-12T03:58:19.879Z,95485.94
2022-08-12T04:00:46.492Z,95487.56
2022-08-12T04:03:13.208Z,95486.78
2022-08-12T04:05:55.987Z,95489.53
2022-08-12T04:08:26.097Z,95489.59
2022-08-12T04:10:54.838Z,95483.69
2022-08-12T04:13:41.143Z,95485.47
2022-08-12T04:16:10.157Z,95489.72
2022-08-12T04:18:37.119Z,95484.91
2022-08-12T04:21:06.944Z,95479.59
2022-08-12T04:23:35.019Z,95481.69
2022-08-12T04:26:01.361Z,95484.06
2022-08-12T04:28:28.099Z,95477.63
2022-08-12T04:30:54.526Z,95478.28
2022-08-12T04:33:21.565Z,95474.47
2022-08-12T04:35:47.901Z,95479.13
2022-08-12T04:38:14.479Z,95476.31
2022-08-12T04:40:41.627Z,95475.41
2022-08-12T04:44:01.069Z,95482.72
2022-08-12T04:45:54.257Z,95482.06
2022-08-12T04:48:20.711Z,95480.75
2022-08-12T04:50:47.360Z,95476.53
2022-08-12T04:53:14.482Z,95478.66
2022-08-12T04:55:41.592Z,95480.06
2022-08-12T04:58:09.208Z,95478.84
2022-08-12T05:00:36.874Z,95484.66
2022-08-12T05:03:05.604Z,95478.66
2022-08-12T05:05:36.096Z,95487.28
2022-08-12T05:08:04.351Z,95482.00
2022-08-12T05:10:33.512Z,95483.84
2022-08-12T05:13:07.318Z,95477.59
2022-08-12T05:15:33.659Z,95485.47
2022-08-12T05:18:19.649Z,95485.78
2022-08-12T05:20:48.129Z,95499.34
2022-08-12T05:23:20.804Z,95495.34
2022-08-12T05:25:49.328Z,95490.38
2022-08-12T05:28:17.582Z,95489.66
2022-08-12T05:30:45.878Z,95492.28
2022-08-12T05:33:13.663Z,95497.31
2022-08-12T05:35:42.921Z,95497.03
2022-08-12T05:38:14.375Z,95495.38
2022-08-12T05:40:41.112Z,95496.84
2022-08-12T05:43:08.022Z,95498.22
2022-08-12T05:45:34.393Z,95497.50
2022-08-12T05:48:00.853Z,95505.16
2022-08-12T05:50:27.179Z,95500.94
2022-08-12T05:52:53.993Z,95502.81
2022-08-12T05:55:20.486Z,95506.91
2022-08-12T05:57:53.899Z,95503.72
2022-08-12T06:00:20.215Z,95501.56
2022-08-12T06:02:46.671Z,95500.00
2022-08-12T06:05:13.121Z,95501.41
2022-08-12T06:08:02.056Z,95504.38
2022-08-12T06:10:32.457Z,95501.19
2022-08-12T06:13:04.930Z,95501.72
2022-08-12T06:15:33.784Z,95503.84
2022-08-12T06:18:13.986Z,95499.00
2022-08-12T06:20:43.498Z,95510.88
2022-08-12T06:23:10.227Z,95500.13
2022-08-12T06:25:36.625Z,95507.66
2022-08-12T06:28:07.904Z,95500.66
2022-08-12T06:30:38.502Z,95503.66
2022-08-12T06:33:18.437Z,95490.19
2022-08-12T06:35:50.071Z,95498.53
2022-08-12T06:38:24.842Z,95497.19
2022-08-12T06:40:56.845Z,95499.09
2022-08-12T06:43:23.188Z,95502.31
2022-08-12T06:45:49.595Z,95497.19
2022-08-12T06:48:16.068Z,95503.06
2022-08-12T06:50:43.011Z,95505.00
2022-08-12T06:53:09.606Z,95492.06
2022-08-12T06:55:36.605Z,95500.69
2022-08-12T06:58:10.064Z,95510.16
2022-08-12T07:00:37.908Z,95500.16
2022-08-12T07:03:22.571Z,95500.69
2022-08-12T07:05:50.860Z,95496.38
2022-08-12T07:08:18.470Z,95501.25
2022-08-12T07:10:47.592Z,95496.94
2022-08-12T07:13:13.948Z,95498.53
2022-08-12T07:15:40.379Z,95490.97
2022-08-12T07:18:11.703Z,95495.81
2022-08-12T07:20:52.256Z,95490.94
2022-08-12T07:23:18.846Z,95493.09
2022-08-12T07:25:45.416Z,95493.09
2022-08-12T07:28:19.349Z,95496.91
2022-08-12T07:30:47.738Z,95494.19
2022-08-12T07:33:14.896Z,95494.19
2022-08-12T07:35:41.342Z,95492.03
2022-08-12T07:38:19.222Z,95489.28
2022-08-12T07:41:19.243Z,95490.13
2022-08-12T07:43:50.182Z,95491.50
2022-08-12T07:46:19.648Z,95492.28
2022-08-12T07:48:56.118Z,95490.94
2022-08-12T07:51:25.857Z,95489.25
2022-08-12T07:54:01.138Z,95494.09
2022-08-12T07:56:30.876Z,95488.75
2022-08-12T07:58:57.416Z,95485.22
2022-08-12T08:01:23.760Z,95489.78
2022-08-12T08:03:53.554Z,95489.25
2022-08-12T08:06:20.161Z,95493.53
2022-08-12T08:08:46.700Z,95493.59
2022-08-12T08:11:13.007Z,95492.19
2022-08-12T08:13:41.647Z,95498.06
2022-08-12T08:16:08.573Z,95497.25
2022-08-12T08:18:36.090Z,95488.06
2022-08-12T08:21:04.784Z,95492.69
2022-08-12T08:23:35.254Z,95484.28
2022-08-12T08:26:03.740Z,95486.47
2022-08-12T08:28:30.079Z,95486.97
2022-08-12T08:30:56.435Z,95488.06
2022-08-12T08:34:04.733Z,95489.69
2022-08-12T08:36:23.687Z,95489.44
2022-08-12T08:38:57.778Z,95486.72
2022-08-12T08:42:13.923Z,95484.53
2022-08-12T08:44:12.478Z,95488.00
2022-08-12T08:46:40.532Z,95483.06
2022-08-12T08:49:07.509Z,95487.56
2022-08-12T08:51:34.309Z,95484.91
2022-08-12T08:54:00.754Z,95487.91
2022-08-12T08:56:27.212Z,95481.06
2022-08-12T08:59:01.893Z,95466.19
2022-08-12T09:01:37.810Z,95474.38
2022-08-12T09:05:09.770Z,95462.13
2022-08-12T09:06:55.905Z,95455.28
2022-08-12T09:09:23.874Z,95462.44
2022-08-12T09:14:36.956Z,95452.16
2022-08-12T09:17:04.336Z,95448.56
2022-08-12T09:19:30.870Z,95455.78
2022-08-12T09:22:00.509Z,95451.13
2022-08-12T09:27:14.202Z,95441.50
2022-08-12T09:30:11.878Z,95449.31
2022-08-12T09:33:04.162Z,95447.53
2022-08-12T09:35:22.094Z,95449.56
2022-08-12T09:37:57.726Z,95445.28
2022-08-12T09:40:57.803Z,95443.16
2022-08-12T09:43:18.286Z,95447.25
2022-08-12T09:46:06.155Z,95441.09
2022-08-12T09:48:35.159Z,95427.47
2022-08-12T09:51:04.533Z,95435.13
2022-08-12T09:53:38.634Z,95438.94
2022-08-12T09:56:59.208Z,95429.63
2022-08-12T09:59:00.968Z,95430.09
2022-08-12T10:01:35.093Z,95427.25
2022-08-12T10:04:19.956Z,95427.69
2022-08-12T10:06:54.058Z,95422.19
2022-08-12T10:09:23.126Z,95416.75
2022-08-12T10:12:11.416Z,95416.44
2022-08-12T10:14:38.935Z,95420.38
2022-08-12T10:17:08.661Z,95410.31
2022-08-12T10:19:36.491Z,95415.00
2022-08-12T10:22:03.873Z,95409.47
2022-08-12T10:24:30.377Z,95409.84
2022-08-12T10:26:56.921Z,95407.72
2022-08-12T10:30:38.248Z,95403.09
2022-08-12T10:32:21.435Z,95397.78
2022-08-12T10:35:04.824Z,95394.66
2022-08-12T10:38:36.337Z,95387.59
2022-08-12T10:40:21.162Z,95396.06
2022-08-12T10:42:48.488Z,95395.97
2022-08-12T10:45:18.208Z,95397.59
2022-08-12T10:48:19.123Z,95384.34
2022-08-12T10:50:51.330Z,95380.84
2022-08-12T10:53:19.841Z,95383.88
2022-08-12T10:55:49.938Z,95387.78
2022-08-12T10:58:30.832Z,95387.13
2022-08-12T11:01:49.953Z,95381.00
2022-08-12T11:04:27.909Z,95378.09
2022-08-12T11:07:05.240Z,95378.69
2022-08-12T11:09:41.780Z,95379.53
2022-08-12T11:12:56.298Z,95379.97
2022-08-12T11:14:54.196Z,95391.47
2022-08-12T11:17:43.433Z,95381.25
2022-08-12T11:20:08.413Z,95377.03
2022-08-12T11:22:41.469Z,95367.66
2022-08-12T11:25:10.376Z,95371.81
2022-08-12T11:27:37.863Z,95360.19
2022-08-12T11:30:07.087Z,95355.59
2022-08-12T11:32:51.331Z,95356.13
2022-08-12T11:35:17.891Z,95356.50
2022-08-12T11:37:58.283Z,95350.88
2022-08-12T11:40:26.087Z,95348.22
2022-08-12T11:43:03.616Z,95349.63
2022-08-12T11:45:46.895Z,95346.22
2022-08-12T11:48:15.211Z,95347.88
2022-08-12T11:50:45.223Z,95354.47
2022-08-12T11:53:58.317Z,95347.94
2022-08-12T11:55:58.337Z,95344.72
2022-08-12T11:59:16.153Z,95345.59
2022-08-12T12:03:58.037Z,95332.59
2022-08-12T12:06:25.013Z,95325.91
2022-08-12T12:08:54.049Z,95323.09
2022-08-12T12:11:22.229Z,95325.75
2022-08-12T12:14:07.903Z,95320.63
2022-08-12T12:16:39.608Z,95316.50
2022-08-12T12:19:07.384Z,95313.47
2022-08-12T12:21:48.323Z,95307.47
2022-08-12T12:24:21.572Z,95307.28
2022-08-12T12:26:59.556Z,95299.03
2022-08-12T12:30:17.509Z,95300.75
2022-08-12T12:32:19.003Z,95308.13
2022-08-12T12:35:13.082Z,95294.84
2022-08-12T12:38:03.425Z,95297.94
2022-08-12T12:40:19.570Z,95282.94
2022-08-12T12:42:57.743Z,95294.44
2022-08-12T12:45:32.455Z,95283.34
2022-08-12T12:48:07.951Z,95286.94
2022-08-12T12:50:51.362Z,95284.34
2022-08-12T12:54:05.098Z,95283.66
2022-08-12T12:56:07.303Z,95288.88
2022-08-12T12:58:33.817Z,95283.59
2022-08-12T13:01:04.810Z,95285.59
2022-08-12T13:03:49.091Z,95287.03
2022-08-12T13:06:16.273Z,95276.66
2022-08-12T13:08:46.847Z,95278.09
2022-08-12T13:11:14.730Z,95279.69
2022-08-12T13:14:08.731Z,95268.38
2022-08-12T13:16:27.955Z,95269.41
2022-08-12T13:18:54.801Z,95267.25
2022-08-12T13:21:32.882Z,95263.06
2022-08-12T13:24:03.060Z,95257.34
2022-08-12T13:26:36.727Z,95265.19
2022-08-12T13:29:04.055Z,95260.91
2022-08-12T13:31:30.582Z,95255.13
2022-08-12T13:34:32.871Z,95256.88
2022-08-12T13:36:48.817Z,95251.22
2022-08-12T13:39:16.261Z,95255.91
2022-08-12T13:41:43.158Z,95257.34
2022-08-12T13:44:10.579Z,95251.97
2022-08-12T13:46:37.608Z,95260.66
2022-08-12T13:49:04.832Z,95251.72
2022-08-12T13:51:40.735Z,95259.75
2022-08-12T13:54:11.687Z,95250.97
2022-08-12T13:56:40.848Z,95255.50
2022-08-12T13:59:08.548Z,95256.66
2022-08-12T14:01:40.688Z,95248.78
2022-08-12T14:04:11.754Z,95244.75
2022-08-12T14:06:41.854Z,95246.81
2022-08-12T14:09:17.631Z,95234.22
2022-08-12T14:11:51.187Z,95238.47
2022-08-12T14:14:26.697Z,95243.03
2022-08-12T14:16:55.782Z,95237.31
2022-08-12T14:19:25.172Z,95228.78
2022-08-12T14:22:01.487Z,95224.88
2022-08-12T14:24:32.921Z,95223.59
2022-08-12T14:27:01.949Z,95222.84
2022-08-12T14:29:56.526Z,95231.81
2022-08-12T14:32:16.388Z,95231.03
2022-08-12T14:34:44.082Z,95232.97
2022-08-12T14:37:13.004Z,95232.19
2022-08-12T14:39:57.294Z,95225.13
2022-08-12T14:42:26.252Z,95232.38
2022-08-12T14:44:59.458Z,95225.91
2022-08-12T14:47:26.682Z,95225.19
2022-08-12T14:50:58.629Z,95220.50
2022-08-12T14:55:24.814Z,95219.34
2022-08-12T14:58:21.301Z,95223.06
2022-08-12T15:00:50.860Z,95220.56
2022-08-12T15:03:20.049Z,95227.47
2022-08-12T15:06:05.058Z,95219.47
2022-08-12T15:08:43.138Z,95224.41
2022-08-12T15:11:11.857Z,95219.69
2022-08-12T15:13:39.805Z,95211.84
2022-08-12T15:16:08.480Z,95217.63
2022-08-12T15:18:36.444Z,95214.88
2022-08-12T15:21:11.123Z,95218.72
2022-08-12T15:23:54.785Z,95216.00
2022-08-12T15:26:28.359Z,95220.47
2022-08-12T15:28:56.436Z,95222.25
2022-08-12T15:31:27.738Z,95216.44
2022-08-12T15:33:55.025Z,95219.38
2022-08-12T15:36:54.060Z,95212.25
2022-08-12T15:39:16.563Z,95215.00
2022-08-12T15:41:49.843Z,95215.53
2022-08-12T15:44:38.272Z,95213.03
2022-08-12T15:47:04.157Z,95220.03
2022-08-12T15:49:54.306Z,95222.22
2022-08-12T15:52:27.820Z,95207.25
2022-08-12T15:54:58.625Z,95206.41
2022-08-12T15:57:28.388Z,95209.41
2022-08-12T16:00:06.672Z,95213.44
2022-08-12T16:02:47.286Z,95200.94
2022-08-12T16:06:19.136Z,95213.66
2022-08-12T16:08:15.275Z,95206.41
2022-08-12T16:10:45.341Z,95195.75
2022-08-12T16:13:14.739Z,95197.81
2022-08-12T16:16:01.487Z,95190.88
2022-08-12T16:18:30.102Z,95195.25
2022-08-12T16:20:57.171Z,95196.44
2022-08-12T16:23:35.961Z,95192.50
2022-08-12T16:26:15.054Z,95192.91
2022-08-12T16:28:47.507Z,95189.06
2022-08-12T16:31:19.224Z,95190.97
2022-08-12T16:33:58.678Z,95186.25
2022-08-12T16:36:30.168Z,95194.19
2022-08-12T16:38:57.097Z,95197.97
2022-08-12T16:41:23.811Z,95195.63
2022-08-12T16:43:50.387Z,95197.88
2022-08-12T16:46:31.787Z,95204.22
2022-08-12T16:49:04.141Z,95202.34
2022-08-12T16:51:37.506Z,95202.75
2022-08-12T16:54:10.748Z,95203.22
2022-08-12T16:56:51.163Z,95205.06
2022-08-12T16:59:24.981Z,95206.81
2022-08-12T17:01:52.682Z,95201.94
2022-08-12T17:04:21.048Z,95203.69
2022-08-12T17:06:51.106Z,95211.94
2022-08-12T17:09:18.418Z,95204.94
2022-08-12T17:11:49.828Z,95203.34
2022-08-12T17:14:20.530Z,95208.81
2022-08-12T17:16:52.848Z,95205.47
2022-08-12T17:20:16.919Z,95201.53
2022-08-12T17:22:10.536Z,95206.88
2022-08-12T17:24:43.988Z,95199.28
2022-08-12T17:27:19.346Z,95218.38
2022-08-12T17:30:02.145Z,95214.84
2022-08-12T17:32:31.472Z,95208.63
2022-08-12T17:35:00.724Z,95219.50
2022-08-12T17:37:27.805Z,95213.22
2022-08-12T17:40:13.800Z,95209.38
2022-08-12T17:42:40.930Z,95216.91
2022-08-12T17:45:18.229Z,95215.38
2022-08-12T17:48:04.490Z,95204.44
2022-08-12T17:50:41.075Z,95210.34
2022-08-12T17:53:10.781Z,95208.81
2022-08-12T17:55:43.501Z,95216.53
2022-08-12T17:58:22.261Z,95214.28
2022-08-12T18:01:03.702Z,95216.06
2022-08-12T18:04:04.363Z,95219.25
2022-08-12T18:06:18.094Z,95218.50
2022-08-12T18:08:55.035Z,95212.41
2022-08-12T18:12:04.341Z,95216.47
2022-08-12T18:14:12.671Z,95220.47
2022-08-12T18:16:49.848Z,95217.88
2022-08-12T18:19:23.512Z,95216.41
2022-08-12T18:22:02.738Z,95219.94
2022-08-12T18:24:30.433Z,95220.84
2022-08-12T18:26:57.242Z,95228.06
2022-08-12T18:29:36.654Z,95222.47
2022-08-12T18:32:53.706Z,95223.66
2022-08-12T18:34:57.852Z,95221.25
2022-08-12T18:37:41.714Z,95218.53
2022-08-12T18:40:09.955Z,95231.50
2022-08-12T18:42:36.478Z,95219.66
2022-08-12T18:45:04.038Z,95227.88
2022-08-12T18:47:50.134Z,95225.88
2022-08-12T18:50:18.454Z,95228.09
2022-08-12T18:52:48.352Z,95225.09
2022-08-12T18:55:16.033Z,95223.88
2022-08-12T18:58:06.701Z,95232.25
2022-08-12T19:00:33.944Z,95231.75
2022-08-12T19:03:00.680Z,95232.25
2022-08-12T19:05:53.240Z,95230.88
2022-08-12T19:08:15.027Z,95229.22
2022-08-12T19:10:43.042Z,95233.63
2022-08-12T19:13:20.974Z,95225.25
2022-08-12T19:15:57.557Z,95235.59
2022-08-12T19:18:26.036Z,95236.28
2022-08-12T19:20:58.407Z,95236.44
2022-08-12T19:23:35.389Z,95237.78
2022-08-12T19:26:03.696Z,95234.47
2022-08-12T19:28:35.596Z,95246.94
2022-08-12T19:31:20.772Z,95246.41
2022-08-12T19:34:06.314Z,95241.88
2022-08-12T19:36:35.485Z,95243.59
2022-08-12T19:39:02.368Z,95247.19
2022-08-12T19:42:00.549Z,95249.38
2022-08-12T19:44:29.373Z,95237.84
2022-08-12T19:46:57.170Z,95243.41
2022-08-12T19:49:23.742Z,95255.53
2022-08-12T19:51:50.288Z,95253.59
2022-08-12T19:54:19.197Z,95231.56
2022-08-12T19:56:46.625Z,95252.69
2022-08-12T19:59:18.721Z,95247.41
2022-08-12T20:02:02.474Z,95248.50
2022-08-12T20:04:35.127Z,95250.75
2022-08-12T20:07:01.643Z,95253.50
2022-08-12T20:09:38.855Z,95247.44
2022-08-12T20:12:10.276Z,95250.16
2022-08-12T20:14:43.685Z,95246.91
2022-08-12T20:17:11.181Z,95254.53
2022-08-12T20:20:16.627Z,95250.59
2022-08-12T20:22:31.584Z,95242.28
2022-08-12T20:25:04.531Z,95244.81
2022-08-12T20:28:04.396Z,95241.03
2022-08-12T20:30:52.367Z,95245.34
2022-08-12T20:33:18.904Z,95244.31
2022-08-12T20:36:06.275Z,95241.16
2022-08-12T20:38:36.132Z,95246.59
2022-08-12T20:41:02.691Z,95246.59
2022-08-12T20:43:43.370Z,95250.91
2022-08-12T20:46:10.804Z,95248.19
2022-08-12T20:48:37.331Z,95248.19
2022-08-12T20:51:04.568Z,95259.53
2022-08-12T20:53:33.156Z,95258.78
2022-08-12T20:56:31.220Z,95248.31
2022-08-12T20:58:59.770Z,95254.00
2022-08-12T21:01:36.484Z,95255.34
2022-08-12T21:04:13.320Z,95258.06
2022-08-12T21:06:39.836Z,95252.66
2022-08-12T21:09:06.365Z,95248.88
2022-08-12T21:11:34.155Z,95264.56
2022-08-12T21:14:00.921Z,95255.19
2022-08-12T21:16:31.466Z,95253.84
2022-08-12T21:19:07.953Z,95249.53
2022-08-12T21:21:50.188Z,95261.09
2022-08-12T21:24:17.150Z,95254.88
2022-08-12T21:26:53.455Z,95262.72
2022-08-12T21:29:21.026Z,95249.75
2022-08-12T21:32:36.049Z,95252.16
2022-08-12T21:34:35.875Z,95254.31
2022-08-12T21:37:26.445Z,95255.31
2022-08-12T21:39:52.161Z,95247.25
2022-08-12T21:42:18.986Z,95261.75
2022-08-12T21:45:47.216Z,95260.13
2022-08-12T21:47:32.022Z,95265.50
2022-08-12T21:50:03.555Z,95260.13
2022-08-12T21:52:40.843Z,95262.81
2022-08-12T21:55:17.935Z,95261.22
2022-08-12T21:57:53.677Z,95256.69
2022-08-12T22:00:24.074Z,95261.78
2022-08-12T22:03:05.487Z,95260.66
2022-08-12T22:05:34.448Z,95265.53
2022-08-12T22:08:00.949Z,95258.66
2022-08-12T22:10:28.451Z,95257.84
2022-08-12T22:12:55.932Z,95258.38
2022-08-12T22:15:23.233Z,95259.16
2022-08-12T22:17:55.322Z,95258.56
2022-08-12T22:20:22.337Z,95251.94
2022-08-12T22:22:57.223Z,95259.75
2022-08-12T22:25:24.237Z,95267.81
2022-08-12T22:27:53.422Z,95267.03
2022-08-12T22:30:21.305Z,95274.84
2022-08-12T22:32:50.512Z,95268.38
2022-08-12T22:35:22.222Z,95258.69
2022-08-12T22:37:56.067Z,95256.53
2022-08-12T22:40:22.782Z,95272.16
2022-08-12T22:42:51.476Z,95266.25
2022-08-12T22:45:18.336Z,95272.69
2022-08-12T22:47:54.956Z,95274.84
2022-08-12T22:50:28.255Z,95275.59
2022-08-12T22:52:56.609Z,95278.34
2022-08-12T22:56:00.591Z,95275.13
2022-08-12T22:58:09.861Z,95265.66
2022-08-12T23:00:39.245Z,95279.13
2022-08-12T23:03:05.790Z,95274.75
2022-08-12T23:05:57.611Z,95272.66
2022-08-12T23:08:23.642Z,95272.06
2022-08-12T23:10:57.228Z,95268.84
2022-08-12T23:13:25.784Z,95269.31
2022-08-12T23:15:54.544Z,95272.53
2022-08-12T23:18:21.556Z,95271.22
2022-08-12T23:20:50.142Z,95276.41
2022-08-12T23:23:16.824Z,95273.63
2022-08-12T23:25:55.621Z,95274.09
2022-08-12T23:28:29.805Z,95267.66
2022-08-12T23:30:57.711Z,95263.31
2022-08-12T23:33:59.821Z,95267.09
2022-08-12T23:36:12.688Z,95266.91
2022-08-12T23:38:44.121Z,95259.59
2022-08-12T23:41:13.059Z,95261.81
2022-08-12T23:43:48.672Z,95266.69
2022-08-12T23:46:18.638Z,95269.94
2022-08-12T23:48:47.896Z,95263.44
2022-08-12T23:51:24.293Z,95265.09
2022-08-12T23:53:59.903Z,95262.88
2022-08-12T23:56:28.582Z,95267.22
2022-08-12T23:58:58.508Z,95274.56
